sensor_id;sensor_type;location;lat;lon;timestamp;temperature;humidity
1417;DHT22;703;51.162;13.574;2022-08-03T00:02:13;18.40;99.90
1417;DHT22;703;51.162;13.574;2022-08-03T00:04:39;18.40;99.90
1417;DHT22;703;51.162;13.574;2022-08-03T00:07:04;18.30;99.90
1417;DHT22;703;51.162;13.574;2022-08-03T00:09:30;18.30;99.90
1417;DHT22;703;51.162;13.574;2022-08-03T00:11:56;18.20;99.90
1417;DHT22;703;51.162;13.574;2022-08-03T00:14:21;18.20;99.90
1417;DHT22;703;51.162;13.574;2022-08-03T00:16:47;18.20;99.90
1417;DHT22;703;51.162;13.574;2022-08-03T00:19:12;18.10;99.90
1417;DHT22;703;51.162;13.574;2022-08-03T00:21:38;18.00;99.90
1417;DHT22;703;51.162;13.574;2022-08-03T00:24:04;18.00;99.90
1417;DHT22;703;51.162;13.574;2022-08-03T00:26:30;19.10;99.90
1417;DHT22;703;51.162;13.574;2022-08-03T00:28:56;18.00;99.90
1417;DHT22;703;51.162;13.574;2022-08-03T00:31:22;17.90;99.90
1417;DHT22;703;51.162;13.574;2022-08-03T00:33:47;17.90;99.90
1417;DHT22;703;51.162;13.574;2022-08-03T00:36:13;17.80;99.90
1417;DHT22;703;51.162;13.574;2022-08-03T00:38:38;17.70;99.90
1417;DHT22;703;51.162;13.574;2022-08-03T00:41:04;17.70;99.90
1417;DHT22;703;51.162;13.574;2022-08-03T00:43:29;17.80;99.90
1417;DHT22;703;51.162;13.574;2022-08-03T00:45:55;17.80;99.90
1417;DHT22;703;51.162;13.574;2022-08-03T00:48:21;17.70;99.90
1417;DHT22;703;51.162;13.574;2022-08-03T00:50:47;17.70;99.90
1417;DHT22;703;51.162;13.574;2022-08-03T00:53:13;17.70;99.90
1417;DHT22;703;51.162;13.574;2022-08-03T00:55:40;17.60;99.90
1417;DHT22;703;51.162;13.574;2022-08-03T00:58:07;17.60;99.90
1417;DHT22;703;51.162;13.574;2022-08-03T01:00:37;17.60;99.90
1417;DHT22;703;51.162;13.574;2022-08-03T01:03:05;17.60;99.90
1417;DHT22;703;51.162;13.574;2022-08-03T01:06:38;17.60;99.90
1417;DHT22;703;51.162;13.574;2022-08-03T01:08:53;17.50;99.90
1417;DHT22;703;51.162;13.574;2022-08-03T01:11:36;17.50;99.90
1417;DHT22;703;51.162;13.574;2022-08-03T01:14:08;17.50;99.90
1417;DHT22;703;51.162;13.574;2022-08-03T01:16:51;17.40;99.90
1417;DHT22;703;51.162;13.574;2022-08-03T01:22:15;17.40;99.90
1417;DHT22;703;51.162;13.574;2022-08-03T01:25:02;17.40;99.90
1417;DHT22;703;51.162;13.574;2022-08-03T01:27:52;17.30;99.90
1417;DHT22;703;51.162;13.574;2022-08-03T01:30:19;17.30;99.90
1417;DHT22;703;51.162;13.574;2022-08-03T01:32:56;17.30;99.90
1417;DHT22;703;51.162;13.574;2022-08-03T01:35:42;17.30;99.90
1417;DHT22;703;51.162;13.574;2022-08-03T01:38:23;17.30;99.90
1417;DHT22;703;51.162;13.574;2022-08-03T01:40:52;17.20;99.90
1417;DHT22;703;51.162;13.574;2022-08-03T01:43:26;17.20;99.90
1417;DHT22;703;51.162;13.574;2022-08-03T01:45:55;17.10;99.90
1417;DHT22;703;51.162;13.574;2022-08-03T01:48:21;17.10;99.90
1417;DHT22;703;51.162;13.574;2022-08-03T01:50:47;17.00;99.90
1417;DHT22;703;51.162;13.574;2022-08-03T01:53:14;17.00;99.90
1417;DHT22;703;51.162;13.574;2022-08-03T01:55:43;17.00;99.90
1417;DHT22;703;51.162;13.574;2022-08-03T01:58:11;16.90;99.90
1417;DHT22;703;51.162;13.574;2022-08-03T02:00:39;16.90;99.90
1417;DHT22;703;51.162;13.574;2022-08-03T02:03:05;16.90;99.90
1417;DHT22;703;51.162;13.574;2022-08-03T02:05:31;16.80;99.90
1417;DHT22;703;51.162;13.574;2022-08-03T02:07:58;16.80;99.90
1417;DHT22;703;51.162;13.574;2022-08-03T02:10:26;16.70;99.90
1417;DHT22;703;51.162;13.574;2022-08-03T02:12:52;16.70;99.90
1417;DHT22;703;51.162;13.574;2022-08-03T02:15:19;16.70;99.90
1417;DHT22;703;51.162;13.574;2022-08-03T02:17:46;16.70;99.90
1417;DHT22;703;51.162;13.574;2022-08-03T02:20:13;16.70;99.90
1417;DHT22;703;51.162;13.574;2022-08-03T02:22:41;16.60;99.90
1417;DHT22;703;51.162;13.574;2022-08-03T02:25:08;16.70;99.90
1417;DHT22;703;51.162;13.574;2022-08-03T02:27:37;16.60;99.90
1417;DHT22;703;51.162;13.574;2022-08-03T02:30:08;16.60;99.90
1417;DHT22;703;51.162;13.574;2022-08-03T02:32:37;16.70;99.90
1417;DHT22;703;51.162;13.574;2022-08-03T02:35:08;16.70;99.90
1417;DHT22;703;51.162;13.574;2022-08-03T02:37:42;16.60;99.90
1417;DHT22;703;51.162;13.574;2022-08-03T02:40:10;16.60;99.90
1417;DHT22;703;51.162;13.574;2022-08-03T02:42:38;16.50;99.90
1417;DHT22;703;51.162;13.574;2022-08-03T02:45:06;16.50;99.90
1417;DHT22;703;51.162;13.574;2022-08-03T02:47:36;16.50;99.90
1417;DHT22;703;51.162;13.574;2022-08-03T02:50:03;16.50;99.90
1417;DHT22;703;51.162;13.574;2022-08-03T02:52:32;16.10;99.90
1417;DHT22;703;51.162;13.574;2022-08-03T02:55:01;16.50;99.90
1417;DHT22;703;51.162;13.574;2022-08-03T02:57:29;16.40;99.90
1417;DHT22;703;51.162;13.574;2022-08-03T02:59:57;16.40;99.90
1417;DHT22;703;51.162;13.574;2022-08-03T03:02:24;16.30;99.90
1417;DHT22;703;51.162;13.574;2022-08-03T03:04:51;16.30;99.90
1417;DHT22;703;51.162;13.574;2022-08-03T03:07:19;16.30;99.90
1417;DHT22;703;51.162;13.574;2022-08-03T03:09:45;16.20;99.90
1417;DHT22;703;51.162;13.574;2022-08-03T03:12:14;16.20;99.90
1417;DHT22;703;51.162;13.574;2022-08-03T03:14:44;16.30;99.90
1417;DHT22;703;51.162;13.574;2022-08-03T03:17:24;16.30;99.90
1417;DHT22;703;51.162;13.574;2022-08-03T03:19:54;16.30;99.90
1417;DHT22;703;51.162;13.574;2022-08-03T03:22:21;16.20;99.90
1417;DHT22;703;51.162;13.574;2022-08-03T03:24:56;16.10;99.90
1417;DHT22;703;51.162;13.574;2022-08-03T03:27:29;16.10;99.90
1417;DHT22;703;51.162;13.574;2022-08-03T03:30:06;16.00;99.90
1417;DHT22;703;51.162;13.574;2022-08-03T03:32:35;16.00;99.90
1417;DHT22;703;51.162;13.574;2022-08-03T03:35:10;16.00;99.90
1417;DHT22;703;51.162;13.574;2022-08-03T03:37:50;16.00;99.90
1417;DHT22;703;51.162;13.574;2022-08-03T03:40:19;16.10;99.90
1417;DHT22;703;51.162;13.574;2022-08-03T03:42:56;16.10;99.90
1417;DHT22;703;51.162;13.574;2022-08-03T03:45:26;16.20;99.90
1417;DHT22;703;51.162;13.574;2022-08-03T03:47:58;16.20;99.90
1417;DHT22;703;51.162;13.574;2022-08-03T03:50:35;16.30;99.90
1417;DHT22;703;51.162;13.574;2022-08-03T03:53:15;16.20;99.90
1417;DHT22;703;51.162;13.574;2022-08-03T03:55:48;16.30;99.90
1417;DHT22;703;51.162;13.574;2022-08-03T03:58:22;16.30;99.90
1417;DHT22;703;51.162;13.574;2022-08-03T04:00:54;16.30;99.90
1417;DHT22;703;51.162;13.574;2022-08-03T04:03:26;16.20;99.90
1417;DHT22;703;51.162;13.574;2022-08-03T04:06:05;16.20;99.90
1417;DHT22;703;51.162;13.574;2022-08-03T04:08:53;16.20;99.90
1417;DHT22;703;51.162;13.574;2022-08-03T04:11:42;16.20;99.90
1417;DHT22;703;51.162;13.574;2022-08-03T04:14:18;16.20;99.90
1417;DHT22;703;51.162;13.574;2022-08-03T04:16:49;16.30;99.90
1417;DHT22;703;51.162;13.574;2022-08-03T04:22:11;16.40;99.90
1417;DHT22;703;51.162;13.574;2022-08-03T04:24:52;16.50;99.90
1417;DHT22;703;51.162;13.574;2022-08-03T04:27:28;16.60;99.90
1417;DHT22;703;51.162;13.574;2022-08-03T04:30:05;16.80;99.90
1417;DHT22;703;51.162;13.574;2022-08-03T04:32:36;16.90;99.90
1417;DHT22;703;51.162;13.574;2022-08-03T04:35:06;17.00;99.90
1417;DHT22;703;51.162;13.574;2022-08-03T04:37:51;17.00;99.90
1417;DHT22;703;51.162;13.574;2022-08-03T04:40:30;17.10;99.90
1417;DHT22;703;51.162;13.574;2022-08-03T04:43:07;17.10;99.90
1417;DHT22;703;51.162;13.574;2022-08-03T04:45:40;17.20;99.90
1417;DHT22;703;51.162;13.574;2022-08-03T04:48:15;17.20;99.90
1417;DHT22;703;51.162;13.574;2022-08-03T04:50:44;17.20;99.90
1417;DHT22;703;51.162;13.574;2022-08-03T04:53:10;17.30;99.90
1417;DHT22;703;51.162;13.574;2022-08-03T04:55:50;17.30;99.90
1417;DHT22;703;51.162;13.574;2022-08-03T04:58:21;17.40;99.90
1417;DHT22;703;51.162;13.574;2022-08-03T05:01:00;17.50;99.90
1417;DHT22;703;51.162;13.574;2022-08-03T05:03:31;17.50;99.90
1417;DHT22;703;51.162;13.574;2022-08-03T05:05:59;17.70;99.90
1417;DHT22;703;51.162;13.574;2022-08-03T05:08:30;17.90;99.90
1417;DHT22;703;51.162;13.574;2022-08-03T05:11:06;18.00;99.90
1417;DHT22;703;51.162;13.574;2022-08-03T05:13:36;18.10;99.90
1417;DHT22;703;51.162;13.574;2022-08-03T05:16:04;18.20;99.90
1417;DHT22;703;51.162;13.574;2022-08-03T05:18:48;18.40;99.90
1417;DHT22;703;51.162;13.574;2022-08-03T05:21:48;18.60;99.90
1417;DHT22;703;51.162;13.574;2022-08-03T05:24:23;18.80;99.90
1417;DHT22;703;51.162;13.574;2022-08-03T05:26:52;18.90;99.90
1417;DHT22;703;51.162;13.574;2022-08-03T05:29:24;19.00;99.90
1417;DHT22;703;51.162;13.574;2022-08-03T05:32:00;19.10;99.90
1417;DHT22;703;51.162;13.574;2022-08-03T05:34:49;19.30;99.90
1417;DHT22;703;51.162;13.574;2022-08-03T05:37:16;19.50;99.90
1417;DHT22;703;51.162;13.574;2022-08-03T05:39:50;19.60;99.90
1417;DHT22;703;51.162;13.574;2022-08-03T05:42:33;19.80;99.90
1417;DHT22;703;51.162;13.574;2022-08-03T05:45:09;20.30;99.90
1417;DHT22;703;51.162;13.574;2022-08-03T05:47:50;20.70;99.90
1417;DHT22;703;51.162;13.574;2022-08-03T05:50:19;20.80;99.90
1417;DHT22;703;51.162;13.574;2022-08-03T05:53:24;21.10;99.90
1417;DHT22;703;51.162;13.574;2022-08-03T05:55:57;21.20;99.90
1417;DHT22;703;51.162;13.574;2022-08-03T05:58:28;21.20;99.90
1417;DHT22;703;51.162;13.574;2022-08-03T06:00:57;21.10;99.90
1417;DHT22;703;51.162;13.574;2022-08-03T06:03:39;21.10;99.90
1417;DHT22;703;51.162;13.574;2022-08-03T06:06:15;21.20;99.90
1417;DHT22;703;51.162;13.574;2022-08-03T06:08:57;21.50;99.90
1417;DHT22;703;51.162;13.574;2022-08-03T06:11:34;21.50;99.90
1417;DHT22;703;51.162;13.574;2022-08-03T06:14:29;21.50;99.90
1417;DHT22;703;51.162;13.574;2022-08-03T06:20:25;21.70;99.90
1417;DHT22;703;51.162;13.574;2022-08-03T06:26:10;22.30;99.90
1417;DHT22;703;51.162;13.574;2022-08-03T06:28:58;22.30;99.90
1417;DHT22;703;51.162;13.574;2022-08-03T06:35:06;22.70;99.90
1417;DHT22;703;51.162;13.574;2022-08-03T06:38:04;22.90;99.90
1417;DHT22;703;51.162;13.574;2022-08-03T06:40:38;22.90;99.90
1417;DHT22;703;51.162;13.574;2022-08-03T06:43:09;23.10;99.90
1417;DHT22;703;51.162;13.574;2022-08-03T06:45:47;23.30;99.90
1417;DHT22;703;51.162;13.574;2022-08-03T06:48:18;23.20;99.90
1417;DHT22;703;51.162;13.574;2022-08-03T06:50:58;23.30;99.90
1417;DHT22;703;51.162;13.574;2022-08-03T06:53:50;23.30;99.90
1417;DHT22;703;51.162;13.574;2022-08-03T06:56:34;23.20;99.90
1417;DHT22;703;51.162;13.574;2022-08-03T06:59:06;23.50;99.90
1417;DHT22;703;51.162;13.574;2022-08-03T07:04:36;23.60;99.90
1417;DHT22;703;51.162;13.574;2022-08-03T07:07:36;23.70;99.90
1417;DHT22;703;51.162;13.574;2022-08-03T07:10:18;23.90;99.90
1417;DHT22;703;51.162;13.574;2022-08-03T07:13:10;23.90;99.90
1417;DHT22;703;51.162;13.574;2022-08-03T07:15:53;24.20;99.90
1417;DHT22;703;51.162;13.574;2022-08-03T07:18:26;24.20;99.90
1417;DHT22;703;51.162;13.574;2022-08-03T07:20:56;24.20;99.90
1417;DHT22;703;51.162;13.574;2022-08-03T07:23:33;24.50;99.90
1417;DHT22;703;51.162;13.574;2022-08-03T07:26:13;24.60;99.90
1417;DHT22;703;51.162;13.574;2022-08-03T07:29:03;24.80;99.90
1417;DHT22;703;51.162;13.574;2022-08-03T07:31:43;24.80;99.90
1417;DHT22;703;51.162;13.574;2022-08-03T07:34:24;24.80;99.90
1417;DHT22;703;51.162;13.574;2022-08-03T07:37:04;25.10;99.90
1417;DHT22;703;51.162;13.574;2022-08-03T07:39:53;25.60;99.90
1417;DHT22;703;51.162;13.574;2022-08-03T07:42:31;25.80;99.90
1417;DHT22;703;51.162;13.574;2022-08-03T07:45:12;25.80;99.90
1417;DHT22;703;51.162;13.574;2022-08-03T07:47:59;25.80;99.90
1417;DHT22;703;51.162;13.574;2022-08-03T07:50:38;25.60;99.90
1417;DHT22;703;51.162;13.574;2022-08-03T07:53:40;25.90;99.90
1417;DHT22;703;51.162;13.574;2022-08-03T07:56:18;26.10;99.90
1417;DHT22;703;51.162;13.574;2022-08-03T07:58:58;26.10;99.90
1417;DHT22;703;51.162;13.574;2022-08-03T08:01:41;26.10;99.90
1417;DHT22;703;51.162;13.574;2022-08-03T08:04:12;26.50;99.90
1417;DHT22;703;51.162;13.574;2022-08-03T08:06:52;26.30;99.90
1417;DHT22;703;51.162;13.574;2022-08-03T08:09:33;26.50;99.90
1417;DHT22;703;51.162;13.574;2022-08-03T08:15:32;27.20;99.90
1417;DHT22;703;51.162;13.574;2022-08-03T08:18:22;27.20;99.90
1417;DHT22;703;51.162;13.574;2022-08-03T08:21:10;27.60;99.90
1417;DHT22;703;51.162;13.574;2022-08-03T08:23:46;27.90;99.90
1417;DHT22;703;51.162;13.574;2022-08-03T08:26:30;28.10;99.90
1417;DHT22;703;51.162;13.574;2022-08-03T08:29:11;28.20;99.90
1417;DHT22;703;51.162;13.574;2022-08-03T08:31:45;28.30;99.90
1417;DHT22;703;51.162;13.574;2022-08-03T08:34:50;28.50;99.90
1417;DHT22;703;51.162;13.574;2022-08-03T08:37:33;28.30;99.90
1417;DHT22;703;51.162;13.574;2022-08-03T08:40:05;28.80;99.90
1417;DHT22;703;51.162;13.574;2022-08-03T08:42:54;28.80;99.90
1417;DHT22;703;51.162;13.574;2022-08-03T08:45:32;28.70;99.90
1417;DHT22;703;51.162;13.574;2022-08-03T08:48:30;28.90;99.90
1417;DHT22;703;51.162;13.574;2022-08-03T08:51:08;29.40;99.90
1417;DHT22;703;51.162;13.574;2022-08-03T08:53:51;29.40;99.90
1417;DHT22;703;51.162;13.574;2022-08-03T08:56:43;29.60;99.90
1417;DHT22;703;51.162;13.574;2022-08-03T08:59:10;30.50;99.90
1417;DHT22;703;51.162;13.574;2022-08-03T09:01:36;30.50;99.90
1417;DHT22;703;51.162;13.574;2022-08-03T09:04:05;30.00;99.90
1417;DHT22;703;51.162;13.574;2022-08-03T09:06:31;30.50;99.90
1417;DHT22;703;51.162;13.574;2022-08-03T09:08:56;30.70;99.90
1417;DHT22;703;51.162;13.574;2022-08-03T09:11:22;30.90;99.90
1417;DHT22;703;51.162;13.574;2022-08-03T09:13:48;31.10;99.90
1417;DHT22;703;51.162;13.574;2022-08-03T09:16:19;31.30;99.90
1417;DHT22;703;51.162;13.574;2022-08-03T09:18:48;31.20;99.90
1417;DHT22;703;51.162;13.574;2022-08-03T09:23:50;31.40;99.90
1417;DHT22;703;51.162;13.574;2022-08-03T09:26:28;32.10;99.90
1417;DHT22;703;51.162;13.574;2022-08-03T09:31:40;32.30;99.90
1417;DHT22;703;51.162;13.574;2022-08-03T09:34:07;31.70;99.90
1417;DHT22;703;51.162;13.574;2022-08-03T09:39:12;32.20;99.90
1417;DHT22;703;51.162;13.574;2022-08-03T09:41:47;32.50;99.90
1417;DHT22;703;51.162;13.574;2022-08-03T09:44:13;32.50;99.90
1417;DHT22;703;51.162;13.574;2022-08-03T09:46:50;32.60;99.90
1417;DHT22;703;51.162;13.574;2022-08-03T09:49:16;32.20;99.90
1417;DHT22;703;51.162;13.574;2022-08-03T09:51:42;32.50;99.90
1417;DHT22;703;51.162;13.574;2022-08-03T09:54:08;32.80;99.90
1417;DHT22;703;51.162;13.574;2022-08-03T09:56:45;32.80;99.90
1417;DHT22;703;51.162;13.574;2022-08-03T09:59:21;32.50;99.90
1417;DHT22;703;51.162;13.574;2022-08-03T10:01:47;32.60;99.90
1417;DHT22;703;51.162;13.574;2022-08-03T10:04:14;32.30;99.90
1417;DHT22;703;51.162;13.574;2022-08-03T10:06:45;33.20;99.90
1417;DHT22;703;51.162;13.574;2022-08-03T10:09:25;33.30;99.90
1417;DHT22;703;51.162;13.574;2022-08-03T10:11:51;33.20;99.90
1417;DHT22;703;51.162;13.574;2022-08-03T10:14:17;32.90;99.90
1417;DHT22;703;51.162;13.574;2022-08-03T10:16:47;32.80;99.90
1417;DHT22;703;51.162;13.574;2022-08-03T10:19:14;33.30;99.90
1417;DHT22;703;51.162;13.574;2022-08-03T10:21:45;33.50;99.90
1417;DHT22;703;51.162;13.574;2022-08-03T10:24:12;33.90;99.90
1417;DHT22;703;51.162;13.574;2022-08-03T10:26:43;34.80;99.90
1417;DHT22;703;51.162;13.574;2022-08-03T10:29:13;33.10;99.90
1417;DHT22;703;51.162;13.574;2022-08-03T10:31:45;33.20;99.90
1417;DHT22;703;51.162;13.574;2022-08-03T10:34:21;33.60;99.90
1417;DHT22;703;51.162;13.574;2022-08-03T10:36:48;33.80;99.90
1417;DHT22;703;51.162;13.574;2022-08-03T10:39:18;33.80;99.90
1417;DHT22;703;51.162;13.574;2022-08-03T10:41:47;34.10;99.90
1417;DHT22;703;51.162;13.574;2022-08-03T10:44:19;34.50;99.90
1417;DHT22;703;51.162;13.574;2022-08-03T10:46:46;34.70;99.90
1417;DHT22;703;51.162;13.574;2022-08-03T10:49:22;34.20;99.90
1417;DHT22;703;51.162;13.574;2022-08-03T10:51:48;34.10;99.90
1417;DHT22;703;51.162;13.574;2022-08-03T10:57:01;34.20;99.90
1417;DHT22;703;51.162;13.574;2022-08-03T11:02:12;34.90;99.90
1417;DHT22;703;51.162;13.574;2022-08-03T11:04:38;34.50;99.90
1417;DHT22;703;51.162;13.574;2022-08-03T11:07:20;34.10;99.90
1417;DHT22;703;51.162;13.574;2022-08-03T11:09:54;34.20;99.90
1417;DHT22;703;51.162;13.574;2022-08-03T11:12:31;35.00;99.90
1417;DHT22;703;51.162;13.574;2022-08-03T11:15:06;35.20;99.90
1417;DHT22;703;51.162;13.574;2022-08-03T11:17:33;34.70;99.90
1417;DHT22;703;51.162;13.574;2022-08-03T11:19:59;34.90;99.90
1417;DHT22;703;51.162;13.574;2022-08-03T11:22:48;35.20;99.90
1417;DHT22;703;51.162;13.574;2022-08-03T11:25:15;35.10;99.90
1417;DHT22;703;51.162;13.574;2022-08-03T11:27:41;34.70;99.90
1417;DHT22;703;51.162;13.574;2022-08-03T11:35:16;35.20;99.90
1417;DHT22;703;51.162;13.574;2022-08-03T11:40:47;35.40;99.90
1417;DHT22;703;51.162;13.574;2022-08-03T11:46:04;35.30;99.90
1417;DHT22;703;51.162;13.574;2022-08-03T11:48:43;35.60;99.90
1417;DHT22;703;51.162;13.574;2022-08-03T11:53:58;35.10;99.90
1417;DHT22;703;51.162;13.574;2022-08-03T11:56:25;35.40;99.90
1417;DHT22;703;51.162;13.574;2022-08-03T11:58:53;34.90;99.90
1417;DHT22;703;51.162;13.574;2022-08-03T12:01:21;35.40;99.90
1417;DHT22;703;51.162;13.574;2022-08-03T12:03:47;34.30;99.90
1417;DHT22;703;51.162;13.574;2022-08-03T12:06:15;35.70;99.90
1417;DHT22;703;51.162;13.574;2022-08-03T12:08:42;35.40;99.90
1417;DHT22;703;51.162;13.574;2022-08-03T12:11:09;35.60;99.90
1417;DHT22;703;51.162;13.574;2022-08-03T12:13:46;35.40;99.90
1417;DHT22;703;51.162;13.574;2022-08-03T12:16:18;35.30;99.90
1417;DHT22;703;51.162;13.574;2022-08-03T12:18:45;36.00;99.90
1417;DHT22;703;51.162;13.574;2022-08-03T12:21:17;35.50;99.90
1417;DHT22;703;51.162;13.574;2022-08-03T12:23:43;35.40;99.90
1417;DHT22;703;51.162;13.574;2022-08-03T12:26:09;36.00;99.90
1417;DHT22;703;51.162;13.574;2022-08-03T12:28:35;36.20;99.90
1417;DHT22;703;51.162;13.574;2022-08-03T12:31:04;36.10;99.90
1417;DHT22;703;51.162;13.574;2022-08-03T12:33:48;35.70;99.90
1417;DHT22;703;51.162;13.574;2022-08-03T12:36:18;36.10;99.90
1417;DHT22;703;51.162;13.574;2022-08-03T12:38:54;36.10;99.90
1417;DHT22;703;51.162;13.574;2022-08-03T12:41:30;36.10;99.90
1417;DHT22;703;51.162;13.574;2022-08-03T12:43:56;36.80;99.90
1417;DHT22;703;51.162;13.574;2022-08-03T12:46:22;36.80;99.90
1417;DHT22;703;51.162;13.574;2022-08-03T12:49:07;36.40;99.90
1417;DHT22;703;51.162;13.574;2022-08-03T12:51:55;36.50;99.90
1417;DHT22;703;51.162;13.574;2022-08-03T12:54:25;36.20;99.90
1417;DHT22;703;51.162;13.574;2022-08-03T12:57:04;36.10;99.90
1417;DHT22;703;51.162;13.574;2022-08-03T12:59:41;36.50;99.90
1417;DHT22;703;51.162;13.574;2022-08-03T13:02:18;37.10;99.90
1417;DHT22;703;51.162;13.574;2022-08-03T13:04:45;37.20;99.90
1417;DHT22;703;51.162;13.574;2022-08-03T13:07:12;36.80;99.90
1417;DHT22;703;51.162;13.574;2022-08-03T13:09:47;36.40;99.90
1417;DHT22;703;51.162;13.574;2022-08-03T13:12:21;37.40;99.90
1417;DHT22;703;51.162;13.574;2022-08-03T13:14:49;36.70;99.90
1417;DHT22;703;51.162;13.574;2022-08-03T13:17:16;36.70;99.90
1417;DHT22;703;51.162;13.574;2022-08-03T13:19:42;36.60;99.90
1417;DHT22;703;51.162;13.574;2022-08-03T13:22:24;36.70;99.90
1417;DHT22;703;51.162;13.574;2022-08-03T13:24:52;36.80;99.90
1417;DHT22;703;51.162;13.574;2022-08-03T13:27:20;37.10;99.90
1417;DHT22;703;51.162;13.574;2022-08-03T13:29:45;36.80;99.90
1417;DHT22;703;51.162;13.574;2022-08-03T13:32:11;37.30;99.90
1417;DHT22;703;51.162;13.574;2022-08-03T13:34:37;35.90;99.90
1417;DHT22;703;51.162;13.574;2022-08-03T13:37:03;36.80;99.90
1417;DHT22;703;51.162;13.574;2022-08-03T13:39:29;37.10;99.90
1417;DHT22;703;51.162;13.574;2022-08-03T13:41:54;36.70;99.90
1417;DHT22;703;51.162;13.574;2022-08-03T13:44:20;37.00;99.90
1417;DHT22;703;51.162;13.574;2022-08-03T13:46:46;36.60;99.90
1417;DHT22;703;51.162;13.574;2022-08-03T13:49:11;36.60;99.90
1417;DHT22;703;51.162;13.574;2022-08-03T13:51:37;36.90;99.90
1417;DHT22;703;51.162;13.574;2022-08-03T13:54:03;37.30;99.90
1417;DHT22;703;51.162;13.574;2022-08-03T13:56:29;37.30;99.90
1417;DHT22;703;51.162;13.574;2022-08-03T13:58:56;37.10;99.90
1417;DHT22;703;51.162;13.574;2022-08-03T14:01:22;37.30;99.90
1417;DHT22;703;51.162;13.574;2022-08-03T14:03:48;37.60;99.90
1417;DHT22;703;51.162;13.574;2022-08-03T14:06:17;37.60;99.90
1417;DHT22;703;51.162;13.574;2022-08-03T14:08:43;37.70;99.90
1417;DHT22;703;51.162;13.574;2022-08-03T14:11:09;37.70;99.90
1417;DHT22;703;51.162;13.574;2022-08-03T14:13:35;37.80;99.90
1417;DHT22;703;51.162;13.574;2022-08-03T14:16:01;37.30;99.90
1417;DHT22;703;51.162;13.574;2022-08-03T14:18:27;37.20;99.90
1417;DHT22;703;51.162;13.574;2022-08-03T14:20:52;37.80;99.90
1417;DHT22;703;51.162;13.574;2022-08-03T14:23:18;38.10;99.90
1417;DHT22;703;51.162;13.574;2022-08-03T14:25:44;38.40;99.90
1417;DHT22;703;51.162;13.574;2022-08-03T14:28:09;38.50;99.90
1417;DHT22;703;51.162;13.574;2022-08-03T14:30:35;38.20;99.90
1417;DHT22;703;51.162;13.574;2022-08-03T14:33:01;38.30;99.90
1417;DHT22;703;51.162;13.574;2022-08-03T14:35:26;38.00;99.90
1417;DHT22;703;51.162;13.574;2022-08-03T14:37:52;37.60;99.90
1417;DHT22;703;51.162;13.574;2022-08-03T14:40:19;36.90;99.90
1417;DHT22;703;51.162;13.574;2022-08-03T14:42:45;37.70;99.90
1417;DHT22;703;51.162;13.574;2022-08-03T14:45:11;38.00;99.90
1417;DHT22;703;51.162;13.574;2022-08-03T14:47:37;37.50;99.90
1417;DHT22;703;51.162;13.574;2022-08-03T14:50:04;37.80;99.90
1417;DHT22;703;51.162;13.574;2022-08-03T14:52:30;37.40;99.90
1417;DHT22;703;51.162;13.574;2022-08-03T14:54:56;37.60;99.90
1417;DHT22;703;51.162;13.574;2022-08-03T14:57:22;37.20;99.90
1417;DHT22;703;51.162;13.574;2022-08-03T14:59:47;37.80;99.90
1417;DHT22;703;51.162;13.574;2022-08-03T15:02:13;37.80;99.90
1417;DHT22;703;51.162;13.574;2022-08-03T15:04:39;37.50;99.90
1417;DHT22;703;51.162;13.574;2022-08-03T15:07:04;37.50;99.90
1417;DHT22;703;51.162;13.574;2022-08-03T15:09:30;37.40;99.90
1417;DHT22;703;51.162;13.574;2022-08-03T15:11:56;37.80;99.90
1417;DHT22;703;51.162;13.574;2022-08-03T15:14:22;37.70;99.90
1417;DHT22;703;51.162;13.574;2022-08-03T15:16:47;37.70;99.90
1417;DHT22;703;51.162;13.574;2022-08-03T15:19:13;37.60;99.90
1417;DHT22;703;51.162;13.574;2022-08-03T15:24:05;37.50;99.90
1417;DHT22;703;51.162;13.574;2022-08-03T15:26:31;38.00;99.90
1417;DHT22;703;51.162;13.574;2022-08-03T15:28:56;38.10;99.90
1417;DHT22;703;51.162;13.574;2022-08-03T15:31:23;38.10;99.90
1417;DHT22;703;51.162;13.574;2022-08-03T15:33:49;37.70;99.90
1417;DHT22;703;51.162;13.574;2022-08-03T15:36:16;37.70;99.90
1417;DHT22;703;51.162;13.574;2022-08-03T15:38:42;37.00;99.90
1417;DHT22;703;51.162;13.574;2022-08-03T15:41:07;37.10;99.90
1417;DHT22;703;51.162;13.574;2022-08-03T15:43:33;36.90;99.90
1417;DHT22;703;51.162;13.574;2022-08-03T15:45:58;36.70;99.90
1417;DHT22;703;51.162;13.574;2022-08-03T15:48:24;36.90;99.90
1417;DHT22;703;51.162;13.574;2022-08-03T15:50:50;36.90;99.90
1417;DHT22;703;51.162;13.574;2022-08-03T15:53:16;37.00;99.90
1417;DHT22;703;51.162;13.574;2022-08-03T15:55:42;37.50;99.90
1417;DHT22;703;51.162;13.574;2022-08-03T15:58:08;37.60;99.90
1417;DHT22;703;51.162;13.574;2022-08-03T16:00:34;37.30;99.90
1417;DHT22;703;51.162;13.574;2022-08-03T16:03:00;37.10;99.90
1417;DHT22;703;51.162;13.574;2022-08-03T16:05:26;37.40;99.90
1417;DHT22;703;51.162;13.574;2022-08-03T16:07:52;37.00;99.90
1417;DHT22;703;51.162;13.574;2022-08-03T16:10:19;36.50;99.90
1417;DHT22;703;51.162;13.574;2022-08-03T16:12:45;36.30;99.90
1417;DHT22;703;51.162;13.574;2022-08-03T16:15:11;36.20;99.90
1417;DHT22;703;51.162;13.574;2022-08-03T16:17:38;36.50;99.90
1417;DHT22;703;51.162;13.574;2022-08-03T16:20:06;36.50;99.90
1417;DHT22;703;51.162;13.574;2022-08-03T16:22:32;36.30;99.90
1417;DHT22;703;51.162;13.574;2022-08-03T16:24:59;36.20;99.90
1417;DHT22;703;51.162;13.574;2022-08-03T16:27:25;36.10;99.90
1417;DHT22;703;51.162;13.574;2022-08-03T16:29:51;35.80;99.90
1417;DHT22;703;51.162;13.574;2022-08-03T16:32:16;35.80;99.90
1417;DHT22;703;51.162;13.574;2022-08-03T16:34:42;35.70;99.90
1417;DHT22;703;51.162;13.574;2022-08-03T16:37:08;36.00;99.90
1417;DHT22;703;51.162;13.574;2022-08-03T16:39:34;35.80;99.90
1417;DHT22;703;51.162;13.574;2022-08-03T16:42:00;35.30;99.90
1417;DHT22;703;51.162;13.574;2022-08-03T16:44:26;35.10;99.90
1417;DHT22;703;51.162;13.574;2022-08-03T16:46:53;34.90;99.90
1417;DHT22;703;51.162;13.574;2022-08-03T16:49:19;34.70;99.90
1417;DHT22;703;51.162;13.574;2022-08-03T16:51:44;34.80;99.90
1417;DHT22;703;51.162;13.574;2022-08-03T16:54:10;35.10;99.90
1417;DHT22;703;51.162;13.574;2022-08-03T16:56:36;35.20;99.90
1417;DHT22;703;51.162;13.574;2022-08-03T16:59:03;35.00;99.90
1417;DHT22;703;51.162;13.574;2022-08-03T17:01:29;35.00;99.90
1417;DHT22;703;51.162;13.574;2022-08-03T17:03:59;34.80;99.90
1417;DHT22;703;51.162;13.574;2022-08-03T17:06:26;34.60;99.90
1417;DHT22;703;51.162;13.574;2022-08-03T17:08:52;34.00;99.90
1417;DHT22;703;51.162;13.574;2022-08-03T17:11:18;34.00;99.90
1417;DHT22;703;51.162;13.574;2022-08-03T17:13:44;34.10;99.90
1417;DHT22;703;51.162;13.574;2022-08-03T17:16:12;34.10;99.90
1417;DHT22;703;51.162;13.574;2022-08-03T17:18:51;34.20;99.90
1417;DHT22;703;51.162;13.574;2022-08-03T17:21:23;34.20;99.90
1417;DHT22;703;51.162;13.574;2022-08-03T17:26:27;33.50;99.90